createdAt,value
2023-02-28T00:00:31.425Z,1023.34
2023-02-28T00:01:22.160Z,1023.33
2023-02-28T00:02:22.166Z,1023.17
2023-02-28T00:03:22.062Z,1023.00
2023-02-28T00:04:22.017Z,1022.95
2023-02-28T00:05:21.960Z,1022.99
2023-02-28T00:06:21.919Z,1023.30
2023-02-28T00:07:21.872Z,1022.99
2023-02-28T00:08:21.835Z,1023.00
2023-02-28T00:09:21.775Z,1022.96
2023-02-28T00:10:21.747Z,1022.97
2023-02-28T00:11:21.680Z,1022.95
2023-02-28T00:12:21.650Z,1022.95
2023-02-28T00:13:21.585Z,1022.96
2023-02-28T00:14:21.555Z,1022.97
2023-02-28T00:15:21.486Z,1022.94
2023-02-28T00:16:21.531Z,1022.97
2023-02-28T00:17:21.395Z,1022.95
2023-02-28T00:18:21.353Z,1023.31
2023-02-28T00:19:21.297Z,1022.97
2023-02-28T00:20:21.270Z,1022.97
2023-02-28T00:21:21.209Z,1022.96
2023-02-28T00:22:21.173Z,1022.93
2023-02-28T00:23:21.112Z,1022.92
2023-02-28T00:24:21.074Z,1023.19
2023-02-28T00:25:21.029Z,1023.31
2023-02-28T00:26:22.026Z,1023.28
2023-02-28T00:27:20.927Z,1023.27
2023-02-28T00:28:20.885Z,1023.27
2023-02-28T00:29:20.827Z,1023.23
2023-02-28T00:30:20.800Z,1022.96
2023-02-28T00:31:20.730Z,1023.26
2023-02-28T00:32:20.767Z,1023.17
2023-02-28T00:33:20.640Z,1022.95
2023-02-28T00:34:20.658Z,1023.29
2023-02-28T00:35:20.554Z,1023.26
2023-02-28T00:36:20.528Z,1022.96
2023-02-28T00:37:20.446Z,1023.29
2023-02-28T00:38:20.428Z,1022.94
2023-02-28T00:39:20.349Z,1022.95
2023-02-28T00:40:20.309Z,1022.96
2023-02-28T00:41:20.257Z,1022.95
2023-02-28T00:42:20.224Z,1022.93
2023-02-28T00:43:20.163Z,1023.23
2023-02-28T00:44:20.132Z,1022.94
2023-02-28T00:45:20.083Z,1023.26
2023-02-28T00:46:20.084Z,1023.25
2023-02-28T00:47:19.981Z,1022.96
2023-02-28T00:48:19.995Z,1023.06
2023-02-28T00:49:19.883Z,1022.87
2023-02-28T00:50:19.873Z,1022.86
2023-02-28T00:51:19.801Z,1022.97
2023-02-28T00:52:19.768Z,1023.16
2023-02-28T00:53:19.694Z,1022.80
2023-02-28T00:54:19.654Z,1022.81
2023-02-28T00:55:19.602Z,1022.82
2023-02-28T00:56:19.563Z,1022.77
2023-02-28T00:57:19.509Z,1022.79
2023-02-28T00:58:19.488Z,1022.76
2023-02-28T00:59:19.413Z,1022.83
2023-02-28T01:00:19.373Z,1022.82
2023-02-28T01:01:19.362Z,1022.83
2023-02-28T01:02:19.292Z,1022.85
2023-02-28T01:03:19.240Z,1022.87
2023-02-28T01:04:19.240Z,1022.91
2023-02-28T01:05:19.139Z,1022.90
2023-02-28T01:06:19.088Z,1023.07
2023-02-28T01:07:19.049Z,1023.26
2023-02-28T01:08:19.028Z,1023.24
2023-02-28T01:09:18.966Z,1023.29
2023-02-28T01:10:18.909Z,1023.28
2023-02-28T01:11:18.864Z,1023.27
2023-02-28T01:12:18.800Z,1023.25
2023-02-28T01:13:18.774Z,1023.29
2023-02-28T01:14:18.716Z,1023.27
2023-02-28T01:15:18.664Z,1023.29
2023-02-28T01:16:18.623Z,1023.31
2023-02-28T01:17:18.568Z,1023.29
2023-02-28T01:18:18.570Z,1023.30
2023-02-28T01:19:18.473Z,1023.25
2023-02-28T01:20:18.437Z,1023.28
2023-02-28T01:21:18.396Z,1023.28
2023-02-28T01:22:18.344Z,1023.29
2023-02-28T01:23:18.312Z,1022.97
2023-02-28T01:24:18.243Z,1022.95
2023-02-28T01:25:18.218Z,1023.27
2023-02-28T01:26:18.144Z,1023.26
2023-02-28T01:27:18.100Z,1023.25
2023-02-28T01:28:18.060Z,1022.95
2023-02-28T01:29:18.004Z,1023.26
2023-02-28T01:30:17.993Z,1022.94
2023-02-28T01:31:17.936Z,1022.97
2023-02-28T01:32:17.881Z,1022.97
2023-02-28T01:33:17.823Z,1022.95
2023-02-28T01:34:17.793Z,1022.96
2023-02-28T01:35:17.725Z,1022.99
2023-02-28T01:36:17.677Z,1022.96
2023-02-28T01:37:17.628Z,1023.34
2023-02-28T01:38:22.598Z,1023.32
2023-02-28T01:39:17.539Z,1023.32
2023-02-28T01:40:17.498Z,1023.33
2023-02-28T01:41:17.446Z,1023.31
2023-02-28T01:42:17.401Z,1023.37
2023-02-28T01:43:17.341Z,1023.35
2023-02-28T01:44:17.289Z,1023.31
2023-02-28T01:45:17.250Z,1023.31
2023-02-28T01:46:17.223Z,1023.32
2023-02-28T01:47:17.175Z,1023.28
2023-02-28T01:48:17.100Z,1022.97
2023-02-28T01:49:17.065Z,1023.28
2023-02-28T01:50:17.004Z,1023.30
2023-02-28T01:51:16.965Z,1023.29
2023-02-28T01:52:16.910Z,1023.27
2023-02-28T01:53:16.893Z,1023.27
2023-02-28T01:54:16.822Z,1023.22
2023-02-28T01:55:16.773Z,1023.21
2023-02-28T01:56:16.735Z,1023.22
2023-02-28T01:57:16.686Z,1023.21
2023-02-28T01:58:16.632Z,1023.19
2023-02-28T01:59:16.592Z,1023.20
2023-02-28T02:00:16.551Z,1023.21
2023-02-28T02:01:16.562Z,1022.94
2023-02-28T02:02:16.440Z,1023.22
2023-02-28T02:03:17.422Z,1023.19
2023-02-28T02:04:16.339Z,1023.24
2023-02-28T02:05:16.312Z,1023.16
2023-02-28T02:06:16.284Z,1023.19
2023-02-28T02:07:16.203Z,1023.15
2023-02-28T02:08:16.167Z,1022.88
2023-02-28T02:09:16.111Z,1022.78
2023-02-28T02:10:16.074Z,1022.80
2023-02-28T02:11:16.006Z,1023.13
2023-02-28T02:12:15.955Z,1023.13
2023-02-28T02:13:15.912Z,1023.15
2023-02-28T02:14:15.882Z,1023.16
2023-02-28T02:15:15.828Z,1023.16
2023-02-28T02:16:15.847Z,1022.90
2023-02-28T02:17:15.731Z,1023.18
2023-02-28T02:18:15.705Z,1023.15
2023-02-28T02:19:15.665Z,1022.80
2023-02-28T02:20:15.594Z,1022.79
2023-02-28T02:21:15.554Z,1022.98
2023-02-28T02:22:15.486Z,1023.04
2023-02-28T02:23:15.457Z,1023.09
2023-02-28T02:24:15.391Z,1023.06
2023-02-28T02:25:15.379Z,1023.07
2023-02-28T02:26:15.307Z,1023.08
2023-02-28T02:27:15.298Z,1023.09
2023-02-28T02:28:15.204Z,1022.73
2023-02-28T02:29:15.164Z,1023.09
2023-02-28T02:30:15.128Z,1022.84
2023-02-28T02:31:15.154Z,1022.74
2023-02-28T02:32:15.056Z,1022.73
2023-02-28T02:33:14.974Z,1023.07
2023-02-28T02:34:14.924Z,1022.75
2023-02-28T02:35:14.895Z,1022.69
2023-02-28T02:36:14.830Z,1022.85
2023-02-28T02:37:14.781Z,1022.70
2023-02-28T02:38:14.731Z,1022.96
2023-02-28T02:39:14.704Z,1022.99
2023-02-28T02:40:14.651Z,1022.65
2023-02-28T02:41:14.586Z,1022.63
2023-02-28T02:42:14.536Z,1022.64
2023-02-28T02:43:14.486Z,1022.60
2023-02-28T02:44:14.439Z,1022.60
2023-02-28T02:45:14.414Z,1022.60
2023-02-28T02:46:14.386Z,1022.61
2023-02-28T02:47:14.305Z,1022.58
2023-02-28T02:48:14.258Z,1022.55
2023-02-28T02:49:14.207Z,1022.90
2023-02-28T02:50:14.172Z,1022.88
2023-02-28T02:51:14.113Z,1022.86
2023-02-28T02:52:14.077Z,1022.89
2023-02-28T02:53:14.037Z,1022.71
2023-02-28T02:54:13.959Z,1022.56
2023-02-28T02:55:13.936Z,1022.54
2023-02-28T02:56:13.876Z,1022.61
2023-02-28T02:57:13.831Z,1022.60
2023-02-28T02:58:13.781Z,1022.58
2023-02-28T02:59:13.748Z,1022.63
2023-02-28T03:00:13.675Z,1022.59
2023-02-28T03:01:13.703Z,1022.92
2023-02-28T03:02:13.607Z,1022.61
2023-02-28T03:03:13.554Z,1022.61
2023-02-28T03:04:13.500Z,1022.58
2023-02-28T03:05:13.448Z,1022.61
2023-02-28T03:06:13.396Z,1022.92
2023-02-28T03:07:13.347Z,1023.02
2023-02-28T03:08:13.309Z,1023.01
2023-02-28T03:09:13.264Z,1022.98
2023-02-28T03:10:13.207Z,1022.99
2023-02-28T03:11:13.180Z,1022.99
2023-02-28T03:12:13.129Z,1022.66
2023-02-28T03:13:13.069Z,1023.01
2023-02-28T03:14:13.007Z,1022.96
2023-02-28T03:15:12.987Z,1022.96
2023-02-28T03:16:12.980Z,1022.60
2023-02-28T03:17:12.864Z,1022.92
2023-02-28T03:18:12.821Z,1022.97
2023-02-28T03:19:12.777Z,1022.93
2023-02-28T03:20:12.731Z,1022.92
2023-02-28T03:21:12.682Z,1022.92
2023-02-28T03:22:12.641Z,1022.61
2023-02-28T03:23:12.590Z,1022.51
2023-02-28T03:24:12.529Z,1022.58
2023-02-28T03:25:12.503Z,1022.93
2023-02-28T03:26:12.446Z,1022.96
2023-02-28T03:27:12.395Z,1022.98
2023-02-28T03:28:12.355Z,1022.92
2023-02-28T03:29:12.297Z,1022.91
2023-02-28T03:30:12.253Z,1022.90
2023-02-28T03:31:12.231Z,1022.92
2023-02-28T03:32:12.294Z,1022.57
2023-02-28T03:33:12.115Z,1022.56
2023-02-28T03:34:12.079Z,1022.55
2023-02-28T03:35:12.019Z,1022.89
2023-02-28T03:36:11.988Z,1022.89
2023-02-28T03:37:11.967Z,1022.56
2023-02-28T03:38:11.864Z,1022.55
2023-02-28T03:39:11.831Z,1022.90
2023-02-28T03:40:11.791Z,1022.89
2023-02-28T03:41:11.724Z,1022.84
2023-02-28T03:42:11.678Z,1022.89
2023-02-28T03:43:11.643Z,1022.55
2023-02-28T03:44:11.580Z,1022.57
2023-02-28T03:45:11.542Z,1022.54
2023-02-28T03:46:11.554Z,1022.85
2023-02-28T03:47:11.450Z,1022.53
2023-02-28T03:48:11.393Z,1022.85
2023-02-28T03:49:11.349Z,1022.66
2023-02-28T03:50:11.297Z,1022.53
2023-02-28T03:51:11.260Z,1022.53
2023-02-28T03:52:11.224Z,1022.54
2023-02-28T03:53:11.163Z,1022.59
2023-02-28T03:54:11.106Z,1022.52
2023-02-28T03:55:11.074Z,1022.59
2023-02-28T03:56:11.010Z,1022.60
2023-02-28T03:57:10.963Z,1022.62
2023-02-28T03:58:10.924Z,1022.92
2023-02-28T03:59:10.872Z,1022.96
2023-02-28T04:00:10.813Z,1022.94
2023-02-28T04:01:10.788Z,1022.66
2023-02-28T04:02:10.774Z,1022.64
2023-02-28T04:03:10.681Z,1022.64
2023-02-28T04:04:10.710Z,1022.63
2023-02-28T04:05:10.581Z,1022.64
2023-02-28T04:06:10.525Z,1022.71
2023-02-28T04:07:10.484Z,1022.96
2023-02-28T04:08:10.433Z,1022.97
2023-02-28T04:09:31.393Z,1022.66
2023-02-28T04:10:10.354Z,1023.02
2023-02-28T04:11:10.300Z,1022.97
2023-02-28T04:12:10.267Z,1022.99
2023-02-28T04:13:10.223Z,1022.69
2023-02-28T04:14:10.152Z,1023.03
2023-02-28T04:15:10.116Z,1022.99
2023-02-28T04:16:10.126Z,1022.96
2023-02-28T04:17:10.002Z,1022.68
2023-02-28T04:18:09.962Z,1023.00
2023-02-28T04:19:09.913Z,1023.00
2023-02-28T04:20:09.871Z,1022.64
2023-02-28T04:21:09.824Z,1022.89
2023-02-28T04:22:09.777Z,1023.01
2023-02-28T04:23:09.720Z,1023.01
2023-02-28T04:24:09.676Z,1023.01
2023-02-28T04:25:09.636Z,1022.67
2023-02-28T04:26:09.587Z,1022.69
2023-02-28T04:27:09.542Z,1022.70
2023-02-28T04:28:09.495Z,1022.70
2023-02-28T04:29:09.434Z,1022.72
2023-02-28T04:30:09.407Z,1023.06
2023-02-28T04:31:09.479Z,1022.68
2023-02-28T04:32:09.459Z,1022.79
2023-02-28T04:33:09.243Z,1022.69
2023-02-28T04:34:09.205Z,1022.70
2023-02-28T04:35:10.789Z,1022.68
2023-02-28T04:36:09.113Z,1023.08
2023-02-28T04:37:14.013Z,1023.07
2023-02-28T04:38:09.027Z,1022.77
2023-02-28T04:39:08.971Z,1023.05
2023-02-28T04:40:09.021Z,1023.06
2023-02-28T04:41:08.863Z,1023.05
2023-02-28T04:42:08.830Z,1023.02
2023-02-28T04:43:08.778Z,1023.07
2023-02-28T04:44:08.724Z,1023.10
2023-02-28T04:45:08.692Z,1023.09
2023-02-28T04:46:08.672Z,1023.08
2023-02-28T04:47:08.613Z,1023.10
2023-02-28T04:48:08.534Z,1023.12
2023-02-28T04:49:08.481Z,1023.10
2023-02-28T04:50:08.439Z,1022.82
2023-02-28T04:51:08.382Z,1022.88
2023-02-28T04:52:08.350Z,1022.79
2023-02-28T04:53:08.303Z,1023.11
2023-02-28T04:54:08.248Z,1022.78
2023-02-28T04:55:08.202Z,1022.82
2023-02-28T04:56:08.163Z,1022.81
2023-02-28T04:57:08.104Z,1022.84
2023-02-28T04:58:10.006Z,1022.82
2023-02-28T04:59:08.015Z,1022.80
2023-02-28T05:00:07.968Z,1022.82
2023-02-28T05:01:07.908Z,1022.81
2023-02-28T05:02:08.257Z,1022.81
2023-02-28T05:03:07.812Z,1022.81
2023-02-28T05:04:07.765Z,1022.82
2023-02-28T05:05:07.793Z,1022.78
2023-02-28T05:06:07.667Z,1022.80
2023-02-28T05:07:07.622Z,1023.11
2023-02-28T05:08:07.575Z,1022.75
2023-02-28T05:09:07.552Z,1022.79
2023-02-28T05:10:07.489Z,1022.82
2023-02-28T05:11:07.431Z,1022.87
2023-02-28T05:12:07.392Z,1022.80
2023-02-28T05:13:07.350Z,1022.82
2023-02-28T05:14:07.305Z,1022.83
2023-02-28T05:15:07.251Z,1022.89
2023-02-28T05:16:07.235Z,1022.82
2023-02-28T05:17:07.145Z,1023.14
2023-02-28T05:18:07.111Z,1022.80
2023-02-28T05:19:07.102Z,1022.84
2023-02-28T05:20:15.299Z,1023.17
2023-02-28T05:21:06.965Z,1023.16
2023-02-28T05:22:06.911Z,1023.15
2023-02-28T05:23:06.863Z,1022.82
2023-02-28T05:24:06.813Z,1022.97
2023-02-28T05:25:06.769Z,1023.16
2023-02-28T05:26:06.730Z,1023.17
2023-02-28T05:27:06.674Z,1022.88
2023-02-28T05:28:06.621Z,1023.18
2023-02-28T05:29:06.596Z,1022.87
2023-02-28T05:30:06.533Z,1022.79
2023-02-28T05:31:06.560Z,1023.19
2023-02-28T05:32:06.542Z,1023.17
2023-02-28T05:33:06.405Z,1023.18
2023-02-28T05:34:06.336Z,1023.21
2023-02-28T05:35:06.293Z,1023.22
2023-02-28T05:36:06.241Z,1023.20
2023-02-28T05:37:06.204Z,1023.26
2023-02-28T05:38:06.171Z,1023.22
2023-02-28T05:39:06.112Z,1023.23
2023-02-28T05:40:06.054Z,1023.25
2023-02-28T05:41:06.019Z,1023.25
2023-02-28T05:42:05.965Z,1023.29
2023-02-28T05:43:05.923Z,1023.31
2023-02-28T05:44:05.860Z,1023.33
2023-02-28T05:45:05.818Z,1022.96
2023-02-28T05:46:05.774Z,1022.99
2023-02-28T05:47:05.733Z,1022.97
2023-02-28T05:48:05.686Z,1022.94
2023-02-28T05:49:05.729Z,1022.97
2023-02-28T05:50:05.579Z,1022.97
2023-02-28T05:51:05.548Z,1023.30
2023-02-28T05:52:05.492Z,1023.31
2023-02-28T05:53:05.449Z,1023.34
2023-02-28T05:54:05.388Z,1023.33
2023-02-28T05:55:05.348Z,1023.35
2023-02-28T05:56:05.317Z,1023.37
2023-02-28T05:57:10.184Z,1023.35
2023-02-28T05:58:05.196Z,1023.06
2023-02-28T05:59:05.154Z,1023.29
2023-02-28T06:00:05.197Z,1023.38
2023-02-28T06:03:30.140Z,1023.07
2023-02-28T06:06:15.248Z,1023.48
2023-02-28T06:07:02.808Z,1023.14
2023-02-28T06:09:56.323Z,1023.48
2023-02-28T06:10:36.333Z,1023.51
2023-02-28T06:13:06.914Z,1023.17
2023-02-28T06:14:06.062Z,1023.54
2023-02-28T06:16:40.737Z,1023.63
2023-02-28T06:21:55.429Z,1023.31
2023-02-28T06:23:12.922Z,1023.30
2023-02-28T06:24:52.416Z,1023.31
2023-02-28T06:25:51.419Z,1023.29
2023-02-28T06:30:07.192Z,1023.68
2023-02-28T06:31:04.175Z,1023.42
2023-02-28T06:33:46.194Z,1023.39
2023-02-28T06:34:35.664Z,1023.77
2023-02-28T06:37:16.386Z,1023.42
2023-02-28T06:40:38.838Z,1023.81
2023-02-28T06:41:53.281Z,1023.82
2023-02-28T06:42:39.615Z,1023.48
2023-02-28T06:43:39.164Z,1023.85
2023-02-28T06:47:03.273Z,1023.51
2023-02-28T06:48:04.683Z,1023.54
2023-02-28T06:53:41.618Z,1023.66
2023-02-28T06:55:43.051Z,1024.08
2023-02-28T06:56:44.463Z,1023.68
2023-02-28T06:57:40.462Z,1023.72
2023-02-28T06:59:40.234Z,1023.73
2023-02-28T07:01:00.385Z,1024.12
2023-02-28T07:01:39.136Z,1024.18
2023-02-28T07:02:39.040Z,1023.85
2023-02-28T07:03:38.995Z,1023.99
2023-02-28T07:04:38.995Z,1023.88
2023-02-28T07:07:32.512Z,1023.94
2023-02-28T07:08:13.146Z,1023.97
2023-02-28T07:09:13.077Z,1024.01
2023-02-28T07:15:12.455Z,1024.50
2023-02-28T07:16:08.847Z,1024.15
2023-02-28T07:17:08.653Z,1024.14
2023-02-28T07:19:23.929Z,1024.59
2023-02-28T07:20:24.012Z,1024.58
2023-02-28T07:21:14.967Z,1024.58
2023-02-28T07:22:08.457Z,1024.62
2023-02-28T07:23:08.373Z,1024.26
2023-02-28T07:24:08.335Z,1024.31
2023-02-28T07:25:08.288Z,1024.33
2023-02-28T07:26:08.235Z,1024.35
2023-02-28T07:27:08.197Z,1024.78
2023-02-28T07:28:08.145Z,1024.56
2023-02-28T07:29:08.118Z,1024.48
2023-02-28T07:30:08.076Z,1024.51
2023-02-28T07:31:08.250Z,1024.89
2023-02-28T07:32:08.010Z,1024.92
2023-02-28T07:33:07.929Z,1024.96
2023-02-28T07:34:07.889Z,1024.98
2023-02-28T07:35:07.891Z,1025.00
2023-02-28T07:36:07.808Z,1024.63
2023-02-28T07:37:07.780Z,1024.64
2023-02-28T07:38:07.719Z,1024.66
2023-02-28T07:39:07.696Z,1025.08
2023-02-28T07:40:07.643Z,1025.09
2023-02-28T07:41:07.631Z,1025.07
2023-02-28T07:42:07.578Z,1025.14
2023-02-28T07:43:07.522Z,1025.20
2023-02-28T07:44:07.477Z,1025.24
2023-02-28T07:45:07.449Z,1024.89
2023-02-28T07:46:07.462Z,1025.30
2023-02-28T07:47:07.394Z,1025.00
2023-02-28T07:48:07.318Z,1025.02
2023-02-28T07:49:07.285Z,1025.26
2023-02-28T07:50:07.245Z,1025.05
2023-02-28T07:51:07.204Z,1025.14
2023-02-28T07:52:07.200Z,1025.14
2023-02-28T07:53:07.132Z,1025.52
2023-02-28T07:54:07.124Z,1025.57
2023-02-28T07:55:07.038Z,1025.54
2023-02-28T07:56:07.004Z,1025.20
2023-02-28T07:57:06.967Z,1025.58
2023-02-28T07:58:06.934Z,1025.23
2023-02-28T07:59:06.884Z,1025.68
2023-02-28T08:00:06.857Z,1025.67
2023-02-28T08:01:06.819Z,1025.34
2023-02-28T08:02:06.815Z,1025.46
2023-02-28T08:03:06.738Z,1025.72
2023-02-28T08:04:06.699Z,1025.77
2023-02-28T08:05:06.702Z,1025.84
2023-02-28T08:06:06.625Z,1025.83
2023-02-28T08:07:06.607Z,1025.46
2023-02-28T08:08:06.541Z,1025.57
2023-02-28T08:09:06.552Z,1025.90
2023-02-28T08:10:06.503Z,1025.89
2023-02-28T08:11:06.439Z,1025.55
2023-02-28T08:12:06.388Z,1025.54
2023-02-28T08:13:06.359Z,1025.58
2023-02-28T08:14:06.301Z,1025.95
2023-02-28T08:15:06.274Z,1025.98
2023-02-28T08:16:06.247Z,1025.65
2023-02-28T08:17:06.199Z,1025.67
2023-02-28T08:18:06.135Z,1025.70
2023-02-28T08:19:06.127Z,1026.05
2023-02-28T08:20:06.073Z,1025.85
2023-02-28T08:21:06.164Z,1026.01
2023-02-28T08:22:06.011Z,1025.75
2023-02-28T08:23:05.955Z,1025.90
2023-02-28T08:24:05.914Z,1026.06
2023-02-28T08:25:05.881Z,1026.07
2023-02-28T08:26:05.852Z,1025.78
2023-02-28T08:27:05.797Z,1025.79
2023-02-28T08:28:05.746Z,1025.74
2023-02-28T08:29:05.726Z,1025.80
2023-02-28T08:30:05.684Z,1026.13
2023-02-28T08:31:05.666Z,1026.11
2023-02-28T08:32:05.730Z,1025.77
2023-02-28T08:33:05.583Z,1026.12
2023-02-28T08:34:05.520Z,1025.74
2023-02-28T08:35:05.495Z,1026.13
2023-02-28T08:36:05.591Z,1026.20
2023-02-28T08:37:05.407Z,1025.89
2023-02-28T08:38:05.375Z,1026.13
2023-02-28T08:39:05.341Z,1025.78
2023-02-28T08:40:05.340Z,1026.07
2023-02-28T08:41:05.272Z,1025.76
2023-02-28T08:42:07.690Z,1026.15
2023-02-28T08:43:05.205Z,1026.09
2023-02-28T08:44:05.157Z,1026.06
2023-02-28T08:45:05.107Z,1025.74
2023-02-28T08:46:05.122Z,1026.08
2023-02-28T08:47:05.137Z,1026.10
2023-02-28T08:48:05.008Z,1026.08
2023-02-28T08:49:04.961Z,1026.11
2023-02-28T08:50:04.935Z,1025.74
2023-02-28T08:51:07.720Z,1025.72
2023-02-28T08:52:04.844Z,1026.05
2023-02-28T08:53:04.830Z,1026.08
2023-02-28T08:54:04.770Z,1026.03
2023-02-28T08:55:04.737Z,1025.76
2023-02-28T08:56:04.704Z,1025.70
2023-02-28T08:57:04.694Z,1026.02
2023-02-28T08:58:04.618Z,1025.98
2023-02-28T08:59:04.603Z,1025.64
2023-02-28T09:00:04.554Z,1025.64
2023-02-28T09:01:04.527Z,1025.61
2023-02-28T09:02:04.505Z,1025.92
2023-02-28T09:03:04.426Z,1025.97
2023-02-28T09:04:04.386Z,1025.59
2023-02-28T09:05:04.368Z,1025.62
2023-02-28T09:06:04.328Z,1025.95
2023-02-28T09:07:04.302Z,1025.80
2023-02-28T09:08:04.250Z,1025.23
2023-02-28T09:09:04.230Z,1025.69
2023-02-28T09:10:04.174Z,1025.82
2023-02-28T09:11:04.131Z,1025.87
2023-02-28T09:12:04.083Z,1025.84
2023-02-28T09:13:04.069Z,1025.22
2023-02-28T09:14:04.016Z,1025.80
2023-02-28T09:15:04.021Z,1025.44
2023-02-28T09:16:03.963Z,1025.40
2023-02-28T09:18:03.877Z,1025.50
2023-02-28T09:19:03.841Z,1025.66
2023-02-28T09:20:03.807Z,1025.21
2023-02-28T09:21:03.752Z,1025.45
2023-02-28T09:22:03.714Z,1025.85
2023-02-28T09:23:03.695Z,1025.24
2023-02-28T09:24:03.650Z,1025.43
2023-02-28T09:25:03.629Z,1025.38
2023-02-28T09:26:03.567Z,1025.24
2023-02-28T09:27:05.386Z,1025.38
2023-02-28T09:28:03.497Z,1025.21
2023-02-28T09:29:03.452Z,1025.39
2023-02-28T09:30:03.417Z,1025.18
2023-02-28T09:31:03.545Z,1025.55
2023-02-28T09:32:03.425Z,1025.30
2023-02-28T09:33:03.319Z,1025.64
2023-02-28T09:34:03.345Z,1025.77
2023-02-28T09:35:03.244Z,1025.66
2023-02-28T09:36:03.217Z,1025.37
2023-02-28T09:37:03.209Z,1025.32
2023-02-28T09:38:03.108Z,1025.67
2023-02-28T09:39:03.081Z,1025.18
2023-02-28T09:40:03.047Z,1025.16
2023-02-28T09:41:03.017Z,1025.35
2023-02-28T09:42:02.944Z,1025.11
2023-02-28T09:43:02.929Z,1025.08
2023-02-28T09:44:02.868Z,1025.28
2023-02-28T09:45:02.833Z,1025.45
2023-02-28T09:46:02.841Z,1025.41
2023-02-28T09:47:02.783Z,1025.41
2023-02-28T09:48:02.741Z,1025.37
2023-02-28T09:49:02.706Z,1025.24
2023-02-28T09:50:02.671Z,1025.49
2023-02-28T09:51:02.598Z,1025.19
2023-02-28T09:52:02.580Z,1025.17
2023-02-28T09:53:02.533Z,1025.05
2023-02-28T09:54:02.515Z,1025.11
2023-02-28T09:55:02.448Z,1025.37
2023-02-28T09:56:02.446Z,1025.35
2023-02-28T09:57:02.374Z,1025.00
2023-02-28T09:58:02.416Z,1025.00
2023-02-28T09:59:02.345Z,1024.98
2023-02-28T10:00:02.288Z,1025.04
2023-02-28T10:01:02.264Z,1025.17
2023-02-28T10:02:02.192Z,1025.31
2023-02-28T10:03:02.159Z,1024.96
2023-02-28T10:04:02.129Z,1025.03
2023-02-28T10:05:02.122Z,1024.96
2023-02-28T10:06:02.026Z,1025.34
2023-02-28T10:07:01.998Z,1025.32
2023-02-28T10:08:01.975Z,1025.32
2023-02-28T10:09:01.926Z,1025.30
2023-02-28T10:10:01.894Z,1025.18
2023-02-28T10:11:01.861Z,1025.13
2023-02-28T10:12:01.801Z,1025.06
2023-02-28T10:13:01.763Z,1024.97
2023-02-28T10:14:01.776Z,1025.03
2023-02-28T10:15:01.702Z,1024.98
2023-02-28T10:16:01.709Z,1024.99
2023-02-28T10:17:01.603Z,1024.98
2023-02-28T10:18:08.838Z,1025.25
2023-02-28T10:19:01.503Z,1024.99
2023-02-28T10:20:01.479Z,1024.96
2023-02-28T10:21:01.423Z,1024.96
2023-02-28T10:22:01.394Z,1025.03
2023-02-28T10:23:01.356Z,1024.97
2023-02-28T10:24:01.296Z,1024.93
2023-02-28T10:25:02.234Z,1025.27
2023-02-28T10:26:01.221Z,1025.37
2023-02-28T10:27:01.189Z,1024.98
2023-02-28T10:28:01.132Z,1024.95
2023-02-28T10:29:01.088Z,1024.99
2023-02-28T10:30:01.093Z,1024.91
2023-02-28T10:31:01.033Z,1025.29
2023-02-28T10:32:01.011Z,1024.93
2023-02-28T10:33:00.939Z,1024.99
2023-02-28T10:34:00.883Z,1025.32
2023-02-28T10:35:00.836Z,1025.13
2023-02-28T10:36:00.836Z,1024.95
2023-02-28T10:37:00.775Z,1025.01
2023-02-28T10:38:00.738Z,1025.59
2023-02-28T10:39:00.688Z,1025.62
2023-02-28T10:40:00.672Z,1025.26
2023-02-28T10:41:00.593Z,1025.12
2023-02-28T10:42:00.569Z,1025.04
2023-02-28T10:43:00.500Z,1025.68
2023-02-28T10:44:00.482Z,1025.12
2023-02-28T10:45:00.420Z,1025.02
2023-02-28T10:46:00.423Z,1025.19
2023-02-28T10:47:00.345Z,1025.64
2023-02-28T10:48:00.308Z,1025.21
2023-02-28T10:49:00.260Z,1024.95
2023-02-28T10:50:00.248Z,1025.06
2023-02-28T10:51:00.186Z,1024.94
2023-02-28T10:52:00.158Z,1025.04
2023-02-28T10:53:00.132Z,1025.41
2023-02-28T10:54:01.871Z,1025.05
2023-02-28T10:55:00.026Z,1025.21
2023-02-28T10:56:00.007Z,1024.83
2023-02-28T10:56:59.962Z,1024.98
2023-02-28T10:57:59.923Z,1024.91
2023-02-28T10:58:59.886Z,1024.92
2023-02-28T10:59:59.820Z,1025.18
2023-02-28T11:00:59.786Z,1024.81
2023-02-28T11:01:59.821Z,1024.75
2023-02-28T11:02:59.726Z,1025.13
2023-02-28T11:03:59.694Z,1024.94
2023-02-28T11:04:59.742Z,1024.88
2023-02-28T11:05:59.589Z,1024.79
2023-02-28T11:06:59.538Z,1024.83
2023-02-28T11:07:59.522Z,1025.04
2023-02-28T11:08:59.459Z,1025.09
2023-02-28T11:09:59.435Z,1025.17
2023-02-28T11:10:59.372Z,1024.82
2023-02-28T11:11:59.337Z,1025.32
2023-02-28T11:13:00.966Z,1024.94
2023-02-28T11:13:59.270Z,1025.38
2023-02-28T11:14:59.217Z,1025.43
2023-02-28T11:15:59.209Z,1025.05
2023-02-28T11:16:59.135Z,1025.55
2023-02-28T11:17:59.090Z,1025.19
2023-02-28T11:18:59.070Z,1025.01
2023-02-28T11:19:59.018Z,1025.10
2023-02-28T11:20:58.992Z,1025.02
2023-02-28T11:21:58.920Z,1025.42
2023-02-28T11:22:58.901Z,1025.41
2023-02-28T11:23:58.860Z,1025.11
2023-02-28T11:24:58.814Z,1025.51
2023-02-28T11:25:58.789Z,1025.07
2023-02-28T11:26:58.756Z,1025.03
2023-02-28T11:27:58.700Z,1025.35
2023-02-28T11:28:58.672Z,1025.01
2023-02-28T11:29:58.612Z,1025.04
2023-02-28T11:30:58.611Z,1025.43
2023-02-28T11:31:58.562Z,1025.08
2023-02-28T11:32:58.562Z,1025.32
2023-02-28T11:33:58.466Z,1025.41
2023-02-28T11:34:58.416Z,1025.11
2023-02-28T11:35:58.416Z,1025.08
2023-02-28T11:36:58.361Z,1025.41
2023-02-28T11:37:58.309Z,1025.43
2023-02-28T11:38:58.278Z,1025.36
2023-02-28T11:39:58.262Z,1025.32
2023-02-28T11:40:58.195Z,1025.06
2023-02-28T11:41:58.168Z,1025.08
2023-02-28T11:42:58.138Z,1024.94
2023-02-28T11:43:58.093Z,1025.37
2023-02-28T11:44:58.057Z,1025.06
2023-02-28T11:45:58.012Z,1025.33
2023-02-28T11:46:57.974Z,1024.98
2023-02-28T11:47:57.946Z,1024.99
2023-02-28T11:48:57.912Z,1025.08
2023-02-28T11:49:57.874Z,1025.11
2023-02-28T11:50:57.854Z,1024.93
2023-02-28T11:51:57.833Z,1024.93
2023-02-28T11:52:57.778Z,1024.97
2023-02-28T11:53:57.738Z,1025.00
2023-02-28T11:54:57.695Z,1025.35
2023-02-28T11:55:57.687Z,1025.09
2023-02-28T11:56:57.622Z,1025.06
2023-02-28T11:57:57.602Z,1025.40
2023-02-28T11:58:57.547Z,1025.34
2023-02-28T11:59:57.533Z,1025.35
2023-02-28T12:00:57.477Z,1025.30
2023-02-28T12:01:57.450Z,1025.35
2023-02-28T12:02:57.441Z,1025.34
2023-02-28T12:03:57.374Z,1024.99
2023-02-28T12:04:57.349Z,1025.33
2023-02-28T12:05:57.310Z,1025.02
2023-02-28T12:06:57.273Z,1024.91
2023-02-28T12:07:57.257Z,1025.32
2023-02-28T12:08:57.189Z,1024.90
2023-02-28T12:09:57.154Z,1025.26
2023-02-28T12:10:57.130Z,1024.97
2023-02-28T12:11:57.095Z,1025.26
2023-02-28T12:12:57.045Z,1024.96
2023-02-28T12:13:57.020Z,1025.27
2023-02-28T12:14:57.027Z,1025.42
2023-02-28T12:15:57.048Z,1024.98
2023-02-28T12:16:56.895Z,1025.03
2023-02-28T12:17:56.913Z,1024.65
2023-02-28T12:18:56.845Z,1024.64
2023-02-28T12:19:56.788Z,1024.84
2023-02-28T12:20:56.767Z,1024.74
2023-02-28T12:21:56.740Z,1024.65
2023-02-28T12:22:56.689Z,1024.71
2023-02-28T12:23:56.641Z,1024.84
2023-02-28T12:24:56.592Z,1024.51
2023-02-28T12:25:56.562Z,1024.76
2023-02-28T12:26:56.542Z,1024.70
2023-02-28T12:27:56.510Z,1024.96
2023-02-28T12:28:56.448Z,1024.62
2023-02-28T12:29:56.412Z,1024.30
2023-02-28T12:30:56.361Z,1024.75
2023-02-28T12:31:56.416Z,1024.43
2023-02-28T12:32:56.323Z,1024.43
2023-02-28T12:33:56.272Z,1024.98
2023-02-28T12:34:56.226Z,1025.07
2023-02-28T12:35:56.211Z,1024.91
2023-02-28T12:36:56.142Z,1024.44
2023-02-28T12:37:56.108Z,1024.35
2023-02-28T12:38:56.063Z,1024.24
2023-02-28T12:39:56.060Z,1024.25
2023-02-28T12:40:56.005Z,1024.55
2023-02-28T12:41:55.940Z,1024.19
2023-02-28T12:42:55.901Z,1024.11
2023-02-28T12:43:55.861Z,1024.14
2023-02-28T12:44:55.820Z,1024.01